Powderville, Montana
Current Conditions -  °F | °C
As of 7:51 PM on Thursday 18 Dec 2014 (Local Time) from KBHK Reporting Station
Clear Clear  
Wind Chill: 24°   Ceiling: Unl
Heat Index: 32°   Visibility: 10mi
Dew Point: 26°   Wind: 9mph
Humidity: 79%   Direction: 230°SW
Pressure: 29.94"   Gusts: NA
Location:  45.76°N, 105.11°W
Report Text: KBHK 190251Z AUTO 23008KT 10SM CLR 00/M03 A2994 RMK AO2 SLP166 T00001033 56003
Loading
Personal Weather Stations






























Interactive Weather Map New forecast layout! Learn more

10-Day Weather Forecast

Advertisements
Track Severe Weather on mobile